Time;durP1;ratioP1;P1;durP2;ratioP2;P2;SDS_P1;SDS_P2;PMS_P1;PMS_P2;Temp;Humidity;BMP_temperature;BMP_pressure;BME280_temperature;BME280_humidity;BME280_pressure;Samples;Min_cycle;Max_cycle;Signal;HPM_P1;HPM_P2
2022/03/11 00:01:20;;;;;;;17.52;13.10;;;6.00;99.90;;;;;;5038721;28;20037;-57
2022/03/11 00:03:46;;;;;;;15.13;11.85;;;6.00;99.90;;;;;;5040252;28;20045;-57
2022/03/11 00:06:50;;;;;;;16.55;12.93;;;6.00;99.90;;;;;;5049829;28;20139;-57
2022/03/11 00:09:17;;;;;;;16.90;12.85;;;6.00;99.90;;;;;;5035147;28;20059;-56
2022/03/11 00:11:43;;;;;;;18.05;12.80;;;5.90;99.90;;;;;;5037090;28;20083;-56
2022/03/11 00:14:09;;;;;;;18.48;12.02;;;5.90;99.90;;;;;;5037664;28;20152;-57
2022/03/11 00:16:35;;;;;;;16.48;11.68;;;5.90;99.90;;;;;;5038144;28;20053;-57
2022/03/11 00:19:01;;;;;;;18.20;12.57;;;5.90;99.90;;;;;;5038787;28;20480;-56
2022/03/11 00:21:28;;;;;;;14.88;12.77;;;5.80;99.90;;;;;;5039534;28;20049;-56
2022/03/11 00:23:54;;;;;;;15.75;11.57;;;5.90;99.90;;;;;;5022267;28;20049;-57
2022/03/11 00:26:20;;;;;;;16.52;12.43;;;5.80;99.90;;;;;;5040830;28;20055;-56
2022/03/11 00:28:46;;;;;;;15.60;11.82;;;5.90;99.90;;;;;;5038670;28;20056;-57
2022/03/11 00:31:12;;;;;;;13.98;11.10;;;5.90;99.90;;;;;;5037415;28;20464;-57
2022/03/11 00:33:39;;;;;;;15.15;11.27;;;5.90;99.90;;;;;;5044064;28;20846;-56
2022/03/11 00:36:05;;;;;;;16.10;10.98;;;5.90;99.90;;;;;;5041266;28;20044;-56
2022/03/11 00:38:31;;;;;;;17.58;11.95;;;5.90;99.90;;;;;;5006516;28;20075;-56
2022/03/11 00:40:58;;;;;;;16.20;11.52;;;5.90;99.90;;;;;;5040392;28;20068;-56
2022/03/11 00:43:25;;;;;;;14.98;11.50;;;5.90;99.90;;;;;;5007613;28;20129;-55
2022/03/11 00:45:53;;;;;;;15.25;11.73;;;5.90;99.90;;;;;;5041242;28;20041;-57
2022/03/11 00:48:20;;;;;;;17.27;11.10;;;5.90;99.90;;;;;;5039896;28;20448;-54
2022/03/11 00:50:47;;;;;;;14.70;10.27;;;5.80;99.90;;;;;;5041524;28;20817;-57
2022/03/11 00:53:13;;;;;;;15.13;10.65;;;5.80;99.90;;;;;;5040682;28;20108;-56
2022/03/11 00:55:39;;;;;;;13.45;10.98;;;5.90;99.90;;;;;;5042983;28;20135;-60
2022/03/11 00:58:05;;;;;;;15.13;10.48;;;5.80;99.90;;;;;;5041165;28;20092;-61
2022/03/11 01:00:32;;;;;;;14.32;11.02;;;5.80;99.90;;;;;;5038490;28;20048;-56
2022/03/11 01:02:58;;;;;;;13.77;9.43;;;5.70;99.90;;;;;;5041639;28;20124;-56
2022/03/11 01:05:25;;;;;;;13.82;9.60;;;5.70;99.90;;;;;;5041119;28;20045;-60
2022/03/11 01:07:52;;;;;;;16.85;10.05;;;5.70;99.90;;;;;;5054480;28;20068;-61
2022/03/11 01:10:19;;;;;;;14.85;9.73;;;5.60;99.90;;;;;;5021440;28;20049;-61
2022/03/11 01:12:45;;;;;;;13.23;9.25;;;5.60;99.90;;;;;;5041273;28;20049;-57
2022/03/11 01:15:12;;;;;;;13.93;10.35;;;5.60;99.90;;;;;;5039883;28;20041;-57
2022/03/11 01:17:38;;;;;;;12.88;9.70;;;5.50;99.90;;;;;;5042044;28;20056;-57
2022/03/11 01:20:06;;;;;;;14.88;10.50;;;5.50;99.90;;;;;;5038742;28;20520;-61
2022/03/11 01:22:33;;;;;;;15.35;10.50;;;5.50;99.90;;;;;;5041502;28;20472;-60
2022/03/11 01:25:00;;;;;;;13.07;8.80;;;5.50;99.90;;;;;;5042754;28;20119;-61
2022/03/11 01:32:41;;;;;;;14.20;10.02;;;5.40;99.90;;;;;;5041377;28;20219;-61
2022/03/11 01:35:07;;;;;;;15.80;10.30;;;5.40;99.90;;;;;;5039979;28;20059;-61
2022/03/11 01:37:35;;;;;;;13.02;10.02;;;5.40;99.90;;;;;;5042643;28;20041;-61
2022/03/11 01:40:01;;;;;;;13.00;9.63;;;5.30;99.90;;;;;;5042594;28;20455;-56
2022/03/11 01:42:27;;;;;;;14.02;10.38;;;5.30;99.90;;;;;;5038744;28;20670;-55
2022/03/11 01:44:53;;;;;;;13.57;10.95;;;5.30;99.90;;;;;;5041318;28;20119;-56
2022/03/11 01:47:20;;;;;;;15.20;9.73;;;5.30;99.90;;;;;;5038734;28;20041;-56
2022/03/11 01:49:46;;;;;;;14.40;11.35;;;5.30;99.90;;;;;;5040416;28;20049;-56
2022/03/11 01:52:12;;;;;;;16.85;10.68;;;5.20;99.90;;;;;;5025324;28;20063;-56
2022/03/11 01:54:43;;;;;;;13.68;9.77;;;5.20;99.90;;;;;;5040234;28;20963;-56
2022/03/11 01:57:10;;;;;;;15.98;11.90;;;5.20;99.90;;;;;;5041709;28;20503;-56
2022/03/11 01:59:36;;;;;;;13.00;9.00;;;5.10;99.90;;;;;;5041773;28;20056;-56
2022/03/11 02:02:02;;;;;;;15.68;11.30;;;5.10;99.90;;;;;;5040923;28;20045;-54
2022/03/11 02:04:28;;;;;;;16.50;10.93;;;5.10;99.90;;;;;;5041825;28;20590;-57
2022/03/11 02:06:54;;;;;;;12.40;9.55;;;5.00;99.90;;;;;;5042193;28;20056;-55
2022/03/11 02:09:20;;;;;;;15.10;10.50;;;5.00;99.90;;;;;;5040212;28;20055;-55
2022/03/11 02:11:47;;;;;;;16.38;10.75;;;5.00;99.90;;;;;;5040046;28;20069;-57
2022/03/11 02:14:14;;;;;;;14.93;10.23;;;5.00;99.90;;;;;;5040860;28;20056;-57
2022/03/11 02:16:40;;;;;;;14.85;11.05;;;4.90;99.90;;;;;;5039346;28;20037;-56
2022/03/11 02:19:09;;;;;;;14.75;10.68;;;4.90;99.90;;;;;;5041489;28;20114;-57
2022/03/11 02:21:42;;;;;;;16.05;11.40;;;4.90;99.90;;;;;;5027395;28;20060;-57
2022/03/11 02:24:12;;;;;;;17.17;10.60;;;4.80;99.90;;;;;;5042413;28;20099;-61
2022/03/11 02:26:38;;;;;;;16.13;10.93;;;4.90;99.90;;;;;;5040985;28;20052;-57
2022/03/11 02:29:05;;;;;;;11.75;8.68;;;4.90;99.90;;;;;;5042749;28;20135;-61
2022/03/11 02:31:32;;;;;;;15.50;11.80;;;4.90;99.90;;;;;;5043198;28;20049;-61
2022/03/11 02:34:00;;;;;;;16.65;12.65;;;4.90;99.90;;;;;;5037192;28;20052;-61
2022/03/11 02:36:27;;;;;;;15.75;11.93;;;4.80;99.90;;;;;;5041621;28;20458;-61
2022/03/11 02:38:53;;;;;;;15.05;11.15;;;4.80;99.90;;;;;;5021151;28;20037;-61
2022/03/11 02:41:23;;;;;;;14.98;11.68;;;4.80;99.90;;;;;;5039235;28;20780;-61
2022/03/11 02:43:49;;;;;;;14.70;12.07;;;4.80;99.90;;;;;;5042403;28;20048;-61
2022/03/11 02:46:15;;;;;;;17.48;13.18;;;4.80;99.90;;;;;;5040048;28;20037;-61
2022/03/11 02:48:42;;;;;;;16.77;12.88;;;4.70;99.90;;;;;;5042248;28;20080;-61
2022/03/11 02:51:08;;;;;;;16.20;12.52;;;4.70;99.90;;;;;;5041525;28;20390;-61
2022/03/11 02:53:40;;;;;;;17.83;13.15;;;4.70;99.90;;;;;;5041617;28;20080;-61
2022/03/11 02:56:11;;;;;;;15.40;12.55;;;4.70;99.90;;;;;;5022127;28;20110;-56
2022/03/11 02:58:40;;;;;;;14.60;10.75;;;4.60;99.90;;;;;;5038225;28;20516;-57
2022/03/11 03:01:07;;;;;;;16.00;12.35;;;4.60;99.90;;;;;;5041302;28;20045;-57
2022/03/11 03:03:33;;;;;;;16.83;12.52;;;4.60;99.90;;;;;;5038879;28;20049;-57
2022/03/11 03:06:03;;;;;;;18.00;12.70;;;4.60;99.90;;;;;;5038729;28;20143;-56
2022/03/11 03:08:29;;;;;;;16.38;12.38;;;4.50;99.90;;;;;;5040482;28;20053;-56
2022/03/11 03:10:55;;;;;;;17.88;13.32;;;4.50;99.90;;;;;;5036233;28;20049;-56
2022/03/11 03:13:21;;;;;;;17.67;12.98;;;4.50;99.90;;;;;;5040364;28;20128;-57
2022/03/11 03:15:47;;;;;;;17.48;13.68;;;4.50;99.90;;;;;;5038887;28;20044;-56
2022/03/11 03:18:14;;;;;;;19.92;12.93;;;4.50;99.90;;;;;;5042315;28;20571;-57
2022/03/11 03:20:40;;;;;;;19.85;13.85;;;4.50;99.90;;;;;;5039449;28;20045;-60
2022/03/11 03:23:06;;;;;;;17.98;12.93;;;4.50;99.90;;;;;;5042695;28;20459;-60
2022/03/11 03:25:32;;;;;;;19.85;14.70;;;4.40;99.90;;;;;;5040381;28;20049;-60
2022/03/11 03:27:58;;;;;;;21.67;14.45;;;4.40;99.90;;;;;;5040791;28;20490;-60
2022/03/11 03:30:25;;;;;;;19.02;14.85;;;4.40;99.90;;;;;;5005161;28;20052;-55
2022/03/11 03:32:51;;;;;;;17.65;13.38;;;4.40;99.90;;;;;;5041288;28;20109;-55
2022/03/11 03:35:17;;;;;;;20.15;15.15;;;4.40;99.90;;;;;;5021538;28;20132;-56
2022/03/11 03:37:43;;;;;;;21.73;14.43;;;4.30;99.90;;;;;;5038549;28;20519;-60
2022/03/11 03:40:11;;;;;;;20.25;14.38;;;4.30;99.90;;;;;;5038323;28;20055;-60
2022/03/11 03:42:37;;;;;;;21.48;14.88;;;4.30;99.90;;;;;;5039288;28;20049;-60
2022/03/11 03:45:04;;;;;;;19.27;14.25;;;4.20;99.90;;;;;;5040201;28;20041;-55
2022/03/11 03:47:30;;;;;;;18.73;14.20;;;4.20;99.90;;;;;;5039453;28;20076;-60
2022/03/11 03:49:56;;;;;;;17.85;13.65;;;4.10;99.90;;;;;;5039627;28;20128;-60
2022/03/11 03:52:22;;;;;;;20.55;14.68;;;4.20;99.90;;;;;;5039084;28;20053;-60
2022/03/11 03:54:48;;;;;;;21.63;15.35;;;4.10;99.90;;;;;;5022912;28;20135;-55
2022/03/11 03:57:14;;;;;;;18.95;13.85;;;4.20;99.90;;;;;;5040287;28;20051;-57
2022/03/11 03:59:40;;;;;;;20.20;15.43;;;4.10;99.90;;;;;;5039024;28;20064;-56
2022/03/11 04:02:07;;;;;;;18.60;15.20;;;4.10;99.90;;;;;;5038035;28;20051;-60
2022/03/11 04:04:33;;;;;;;21.25;15.85;;;4.10;99.90;;;;;;5040377;28;20037;-60
2022/03/11 04:06:59;;;;;;;22.80;14.32;;;4.00;99.90;;;;;;5038712;28;20061;-60
2022/03/11 04:09:25;;;;;;;21.23;13.13;;;4.00;99.90;;;;;;5039935;28;20052;-60
2022/03/11 04:11:51;;;;;;;20.27;15.70;;;3.90;99.90;;;;;;5021805;28;20229;-56
2022/03/11 04:14:17;;;;;;;22.95;15.93;;;3.90;99.90;;;;;;5038159;28;20045;-56
2022/03/11 04:16:43;;;;;;;20.83;15.63;;;3.90;99.90;;;;;;5040785;28;20081;-56
2022/03/11 04:19:09;;;;;;;24.10;17.10;;;3.90;99.90;;;;;;5039841;28;20041;-56
2022/03/11 04:21:35;;;;;;;20.70;16.52;;;3.80;99.90;;;;;;5038626;28;20111;-57
2022/03/11 04:24:01;;;;;;;25.70;17.98;;;3.80;99.90;;;;;;5039981;28;20041;-57
2022/03/11 04:26:27;;;;;;;23.25;16.80;;;3.80;99.90;;;;;;5040674;28;20052;-57
2022/03/11 04:28:53;;;;;;;24.80;17.00;;;3.70;99.90;;;;;;5007426;28;20134;-55
2022/03/11 04:31:19;;;;;;;22.65;17.27;;;3.70;99.90;;;;;;5037809;28;20123;-60
2022/03/11 04:33:46;;;;;;;21.45;16.52;;;3.70;99.90;;;;;;5039696;28;20462;-60
2022/03/11 04:36:13;;;;;;;21.85;15.07;;;3.70;99.90;;;;;;5038014;28;20132;-60
2022/03/11 04:38:40;;;;;;;23.70;17.23;;;3.70;99.90;;;;;;5039652;28;20404;-60
2022/03/11 04:41:06;;;;;;;26.70;18.70;;;3.70;99.90;;;;;;5038330;28;20583;-60
2022/03/11 04:43:34;;;;;;;25.20;18.05;;;3.70;99.90;;;;;;5006662;28;20045;-60
2022/03/11 04:46:00;;;;;;;26.55;19.38;;;3.70;99.90;;;;;;5037437;28;20045;-60
2022/03/11 04:48:26;;;;;;;27.35;18.80;;;3.70;99.90;;;;;;5036821;28;20071;-60
2022/03/11 04:50:53;;;;;;;24.08;18.40;;;3.60;99.90;;;;;;5019307;28;20055;-60
2022/03/11 04:53:19;;;;;;;26.30;19.02;;;3.60;99.90;;;;;;4989993;28;20153;-56
2022/03/11 04:55:45;;;;;;;26.33;18.92;;;3.60;99.90;;;;;;5039042;28;20563;-60
2022/03/11 04:58:11;;;;;;;27.08;19.88;;;3.50;99.90;;;;;;5045129;28;20404;-63
2022/03/11 05:00:37;;;;;;;24.73;17.25;;;3.60;99.90;;;;;;5026644;28;20076;-60
2022/03/11 05:03:04;;;;;;;23.85;17.85;;;3.50;99.90;;;;;;5038994;28;20084;-60
2022/03/11 05:05:30;;;;;;;28.10;18.90;;;3.50;99.90;;;;;;5023106;28;20388;-60
2022/03/11 05:08:00;;;;;;;25.40;20.30;;;3.40;99.90;;;;;;5025321;28;20485;-60
2022/03/11 05:10:26;;;;;;;26.10;18.23;;;3.40;99.90;;;;;;5040718;28;20052;-60
2022/03/11 05:12:52;;;;;;;30.48;20.33;;;3.40;99.90;;;;;;5039988;28;20838;-60
2022/03/11 05:15:19;;;;;;;26.83;18.25;;;3.40;99.90;;;;;;5023119;28;20159;-60
2022/03/11 05:17:45;;;;;;;27.38;18.63;;;3.40;99.90;;;;;;5042694;28;20049;-60
2022/03/11 05:20:12;;;;;;;27.77;20.13;;;3.40;99.90;;;;;;5042268;28;20041;-60
2022/03/11 05:22:41;;;;;;;21.40;16.40;;;3.40;99.90;;;;;;5043088;28;20052;-60
2022/03/11 05:25:11;;;;;;;28.02;20.13;;;3.30;99.90;;;;;;5041725;28;20299;-60
2022/03/11 05:27:38;;;;;;;27.00;20.42;;;3.30;99.90;;;;;;5042017;28;20055;-60
2022/03/11 05:30:09;;;;;;;28.73;19.83;;;3.30;99.90;;;;;;5043182;28;20045;-60
2022/03/11 05:32:48;;;;;;;25.08;19.30;;;3.20;99.90;;;;;;5041421;28;20099;-60
2022/03/11 05:35:16;;;;;;;28.95;21.23;;;3.30;99.90;;;;;;5040497;28;20743;-60
2022/03/11 05:37:42;;;;;;;26.83;21.08;;;3.20;99.90;;;;;;5057012;28;20059;-56
2022/03/11 05:40:09;;;;;;;28.30;20.30;;;3.20;99.90;;;;;;5041963;28;20037;-57
2022/03/11 05:42:36;;;;;;;27.67;21.00;;;3.20;99.90;;;;;;5024314;28;20045;-58
2022/03/11 05:45:07;;;;;;;26.05;20.63;;;3.10;99.90;;;;;;5042962;28;20045;-57
2022/03/11 05:47:33;;;;;;;28.77;21.80;;;3.10;99.90;;;;;;5006873;28;20048;-54
2022/03/11 05:49:59;;;;;;;28.30;19.88;;;3.10;99.90;;;;;;5041185;28;20060;-57
2022/03/11 05:52:26;;;;;;;26.02;20.40;;;3.00;99.90;;;;;;5040769;28;20051;-57
2022/03/11 05:54:53;;;;;;;24.83;19.73;;;3.00;99.90;;;;;;5043369;28;20506;-57
2022/03/11 05:57:19;;;;;;;28.27;20.75;;;3.10;99.90;;;;;;5041063;28;20106;-57
2022/03/11 05:59:45;;;;;;;29.80;21.75;;;3.00;99.90;;;;;;5039073;28;20454;-57
2022/03/11 06:02:11;;;;;;;26.55;20.73;;;3.00;99.90;;;;;;5039890;28;20044;-57
2022/03/11 06:04:37;;;;;;;28.42;19.75;;;3.00;99.90;;;;;;5020556;28;20041;-57
2022/03/11 06:07:05;;;;;;;25.50;18.42;;;3.00;99.90;;;;;;5037084;28;20436;-56
2022/03/11 06:09:31;;;;;;;30.20;20.30;;;3.00;99.90;;;;;;5039609;28;20103;-60
2022/03/11 06:11:57;;;;;;;28.90;21.55;;;3.00;99.90;;;;;;5051365;28;20045;-60
2022/03/11 06:14:23;;;;;;;28.95;21.13;;;3.00;99.90;;;;;;5038540;28;20152;-57
2022/03/11 06:16:49;;;;;;;26.63;20.23;;;3.00;99.90;;;;;;5040099;28;20534;-57
2022/03/11 06:19:15;;;;;;;28.20;20.70;;;2.90;99.90;;;;;;5043745;28;20052;-56
2022/03/11 06:21:41;;;;;;;30.58;20.92;;;2.90;99.90;;;;;;5038677;28;20139;-57
2022/03/11 06:24:08;;;;;;;28.73;23.77;;;2.90;99.90;;;;;;5037297;28;20049;-61
2022/03/11 06:26:34;;;;;;;35.30;23.42;;;3.00;99.90;;;;;;5037701;28;20571;-60
2022/03/11 06:29:00;;;;;;;30.05;20.98;;;3.00;99.90;;;;;;5024749;28;20041;-61
2022/03/11 06:31:26;;;;;;;30.15;20.42;;;3.00;99.90;;;;;;5042943;28;20045;-61
2022/03/11 06:33:53;;;;;;;27.17;20.52;;;2.90;99.90;;;;;;5040853;28;20106;-60
2022/03/11 06:36:19;;;;;;;27.75;21.50;;;2.90;99.90;;;;;;5040816;28;20455;-61
2022/03/11 06:38:45;;;;;;;27.73;19.85;;;3.00;99.90;;;;;;5041363;28;20053;-57
2022/03/11 06:41:12;;;;;;;29.60;22.95;;;3.00;99.90;;;;;;5038804;28;20563;-58
2022/03/11 06:43:38;;;;;;;28.85;18.77;;;3.00;99.90;;;;;;5035505;28;20052;-58
2022/03/11 06:46:05;;;;;;;27.42;20.33;;;3.10;99.90;;;;;;5040330;28;20044;-57
2022/03/11 06:48:31;;;;;;;31.23;21.98;;;3.10;99.90;;;;;;5038218;28;20037;-60
2022/03/11 06:50:58;;;;;;;29.30;20.38;;;3.20;99.90;;;;;;5040623;28;20087;-61
2022/03/11 06:53:26;;;;;;;30.25;21.52;;;3.20;99.90;;;;;;5039124;28;20107;-60
2022/03/11 06:55:53;;;;;;;25.95;20.90;;;3.20;99.90;;;;;;5039301;28;20048;-59
2022/03/11 06:58:19;;;;;;;28.80;22.10;;;3.20;99.90;;;;;;5017907;28;20045;-62
2022/03/11 07:00:45;;;;;;;26.88;17.52;;;3.30;99.90;;;;;;5040260;28;20576;-61
2022/03/11 07:03:11;;;;;;;27.73;20.02;;;3.40;99.90;;;;;;5037658;28;20429;-56
2022/03/11 07:05:37;;;;;;;28.70;20.10;;;3.40;99.90;;;;;;5036458;28;20069;-56
2022/03/11 07:08:04;;;;;;;26.95;20.25;;;3.50;99.90;;;;;;5013192;28;20056;-60
2022/03/11 07:10:30;;;;;;;31.25;21.55;;;3.60;99.90;;;;;;5037710;28;20052;-62
2022/03/11 07:12:59;;;;;;;29.50;19.45;;;3.80;99.90;;;;;;5020071;28;20443;-61
2022/03/11 07:15:25;;;;;;;27.50;20.08;;;3.90;99.90;;;;;;5037834;28;20045;-61
2022/03/11 07:17:51;;;;;;;26.35;20.08;;;4.10;99.90;;;;;;5022277;28;20395;-55
2022/03/11 07:20:17;;;;;;;29.25;21.10;;;4.40;99.90;;;;;;5038505;28;20045;-55
2022/03/11 07:22:47;;;;;;;26.80;20.48;;;4.60;99.90;;;;;;5039681;28;20045;-56
2022/03/11 07:25:17;;;;;;;26.67;21.05;;;4.90;99.90;;;;;;5044140;28;20561;-56
2022/03/11 07:27:45;;;;;;;29.20;20.52;;;5.20;99.90;;;;;;5024248;28;20099;-56
2022/03/11 07:30:12;;;;;;;27.88;18.90;;;5.40;99.90;;;;;;5023238;28;20381;-56
2022/03/11 07:32:40;;;;;;;32.15;23.42;;;5.60;99.90;;;;;;5038905;28;20080;-57
2022/03/11 07:35:08;;;;;;;23.33;19.67;;;5.90;99.90;;;;;;5040919;28;20131;-56
2022/03/11 07:37:36;;;;;;;24.15;19.25;;;6.00;99.90;;;;;;5025388;28;20049;-56
2022/03/11 07:40:03;;;;;;;24.90;20.10;;;6.10;99.90;;;;;;5036123;28;20048;-60
2022/03/11 07:42:31;;;;;;;24.70;19.90;;;6.30;99.90;;;;;;5018486;28;20057;-59
2022/03/11 07:45:00;;;;;;;25.77;19.20;;;6.40;99.90;;;;;;5019686;28;20044;-59
2022/03/11 07:47:26;;;;;;;28.48;19.30;;;6.60;99.90;;;;;;5035235;28;20489;-59
2022/03/11 07:49:52;;;;;;;25.45;17.38;;;6.80;99.90;;;;;;5040100;28;20063;-60
2022/03/11 07:52:21;;;;;;;24.65;19.88;;;7.00;99.90;;;;;;5041761;28;20542;-59
2022/03/11 07:54:47;;;;;;;25.67;20.70;;;7.10;99.90;;;;;;5039732;28;20056;-57
2022/03/11 07:57:13;;;;;;;23.25;19.67;;;7.20;99.90;;;;;;5039831;28;20608;-58
2022/03/11 07:59:41;;;;;;;25.30;19.30;;;7.20;99.90;;;;;;5038755;28;20100;-57
2022/03/11 08:02:07;;;;;;;23.45;17.70;;;7.60;99.90;;;;;;5041145;28;20101;-57
2022/03/11 08:04:34;;;;;;;24.75;19.40;;;7.90;99.90;;;;;;5039133;28;20509;-58
2022/03/11 08:07:06;;;;;;;23.55;18.42;;;8.10;99.90;;;;;;5039818;28;20083;-58
2022/03/11 08:09:35;;;;;;;25.58;19.02;;;8.10;99.90;;;;;;5022991;28;20504;-57
2022/03/11 08:12:05;;;;;;;23.88;19.73;;;8.30;99.90;;;;;;5039880;28;20049;-57
2022/03/11 08:14:31;;;;;;;27.25;20.00;;;8.20;98.80;;;;;;5040538;28;20591;-57
2022/03/11 08:16:58;;;;;;;26.52;20.80;;;8.30;90.70;;;;;;5037647;28;20049;-57
2022/03/11 08:19:25;;;;;;;21.63;18.05;;;8.50;78.20;;;;;;5040295;28;20559;-56
2022/03/11 08:21:51;;;;;;;24.98;20.40;;;8.90;78.00;;;;;;5022776;28;20161;-56
2022/03/11 08:24:18;;;;;;;23.73;19.20;;;9.10;73.90;;;;;;5022719;28;20045;-56
2022/03/11 08:26:44;;;;;;;22.35;19.77;;;9.00;68.50;;;;;;5041282;28;20045;-56
2022/03/11 08:29:10;;;;;;;23.17;17.45;;;9.30;68.70;;;;;;5040497;28;20044;-56
2022/03/11 08:31:37;;;;;;;25.80;19.88;;;9.40;64.60;;;;;;5041858;28;20049;-56
2022/03/11 08:34:03;;;;;;;20.85;18.05;;;9.30;62.90;;;;;;5045659;28;20043;-56
2022/03/11 08:36:30;;;;;;;24.33;19.17;;;9.40;64.70;;;;;;5045490;28;20463;-57
2022/03/11 08:38:56;;;;;;;19.13;17.05;;;9.70;63.20;;;;;;5045231;28;20147;-57
2022/03/11 08:41:25;;;;;;;25.05;19.92;;;9.70;60.80;;;;;;5043661;28;20079;-57
2022/03/11 08:43:53;;;;;;;21.92;19.40;;;10.10;61.10;;;;;;5041373;28;20048;-57
2022/03/11 08:46:19;;;;;;;23.35;20.33;;;10.30;60.50;;;;;;5042969;28;20051;-53
2022/03/11 08:48:45;;;;;;;25.95;19.38;;;10.70;59.60;;;;;;5041652;28;20045;-54
2022/03/11 08:51:11;;;;;;;25.25;19.10;;;10.80;57.40;;;;;;5025253;28;20055;-52
2022/03/11 08:53:37;;;;;;;25.08;18.65;;;11.10;55.20;;;;;;5043886;28;20087;-53
2022/03/11 08:56:04;;;;;;;23.60;18.20;;;11.00;54.80;;;;;;5026751;28;20503;-54
2022/03/11 08:58:30;;;;;;;24.42;19.48;;;11.10;54.40;;;;;;5043810;28;20045;-53
2022/03/11 09:00:56;;;;;;;26.13;19.95;;;11.40;55.00;;;;;;5044508;28;20450;-53
2022/03/11 09:03:24;;;;;;;23.42;18.30;;;11.40;54.30;;;;;;5043032;28;20661;-54
2022/03/11 09:05:50;;;;;;;29.95;19.35;;;11.50;53.90;;;;;;5042731;28;20110;-54
2022/03/11 09:08:17;;;;;;;22.67;19.52;;;11.80;53.30;;;;;;5026009;28;20619;-55
2022/03/11 09:10:43;;;;;;;22.13;19.10;;;12.00;52.00;;;;;;5043758;28;20053;-55
2022/03/11 09:13:10;;;;;;;21.02;17.60;;;12.00;51.50;;;;;;5044298;28;20053;-52
2022/03/11 09:15:36;;;;;;;21.80;19.17;;;11.90;51.10;;;;;;5043666;28;20110;-52
2022/03/11 09:18:02;;;;;;;22.70;17.95;;;11.60;50.50;;;;;;5043166;28;20080;-53
2022/03/11 09:20:29;;;;;;;26.17;18.90;;;11.70;50.70;;;;;;5054931;28;20449;-55
2022/03/11 09:22:55;;;;;;;25.42;18.80;;;11.60;51.00;;;;;;5015426;28;20047;-52
2022/03/11 09:25:21;;;;;;;22.98;19.67;;;11.90;51.20;;;;;;5040886;28;20475;-54
2022/03/11 09:27:48;;;;;;;24.08;19.67;;;12.10;51.00;;;;;;5041745;28;20053;-55
2022/03/11 09:30:14;;;;;;;24.17;19.23;;;12.10;50.10;;;;;;5058387;28;20171;-56
2022/03/11 09:32:41;;;;;;;24.35;19.67;;;12.10;49.90;;;;;;5044879;28;20095;-54
2022/03/11 09:35:07;;;;;;;22.05;18.50;;;12.20;49.80;;;;;;5043969;28;20100;-54
2022/03/11 09:37:34;;;;;;;22.73;19.70;;;12.20;49.80;;;;;;5042360;28;20083;-53
2022/03/11 09:40:01;;;;;;;25.00;19.42;;;12.10;49.60;;;;;;5041614;28;20045;-52
2022/03/11 09:42:28;;;;;;;23.88;19.10;;;12.20;49.50;;;;;;5040888;28;20488;-54
2022/03/11 09:44:55;;;;;;;24.08;19.27;;;12.50;49.40;;;;;;5043653;28;20528;-53
2022/03/11 09:47:22;;;;;;;24.75;19.15;;;12.50;48.50;;;;;;5042832;28;20061;-57
2022/03/11 09:49:50;;;;;;;22.40;19.80;;;12.40;48.10;;;;;;5043701;28;20053;-57
2022/03/11 09:52:17;;;;;;;22.67;18.73;;;12.80;49.10;;;;;;5041832;28;20053;-57
2022/03/11 09:54:46;;;;;;;22.10;19.67;;;13.00;48.10;;;;;;5042869;28;20052;-57
2022/03/11 09:57:22;;;;;;;22.77;18.13;;;13.60;48.00;;;;;;5042721;28;20107;-56
2022/03/11 09:59:50;;;;;;;23.10;18.98;;;13.60;46.00;;;;;;5040976;28;20543;-56
2022/03/11 10:02:17;;;;;;;22.85;18.98;;;13.30;46.50;;;;;;5040775;28;20076;-56
2022/03/11 10:04:52;;;;;;;23.38;19.52;;;13.30;46.50;;;;;;5039150;28;20444;-57
2022/03/11 10:07:24;;;;;;;24.10;17.73;;;13.40;47.40;;;;;;5038267;28;20128;-57
2022/03/11 10:09:50;;;;;;;25.75;19.80;;;13.50;46.00;;;;;;5050698;28;20336;-57
2022/03/11 10:12:25;;;;;;;22.50;20.15;;;13.50;46.50;;;;;;5039922;28;20160;-57
2022/03/11 10:15:02;;;;;;;23.65;18.88;;;13.70;45.80;;;;;;5042184;28;20416;-59
2022/03/11 10:17:38;;;;;;;20.02;16.83;;;14.00;45.30;;;;;;5042126;28;20049;-57
2022/03/11 10:20:07;;;;;;;22.95;19.35;;;14.00;44.10;;;;;;5042360;28;20583;-57
2022/03/11 10:22:35;;;;;;;24.15;19.02;;;14.10;44.70;;;;;;5024106;28;20040;-59
2022/03/11 10:25:24;;;;;;;23.80;19.27;;;14.40;44.40;;;;;;5035476;28;20041;-57
2022/03/11 10:28:02;;;;;;;21.63;18.73;;;14.40;43.40;;;;;;5034140;28;20057;-56
2022/03/11 10:30:37;;;;;;;22.92;20.33;;;14.40;43.30;;;;;;5035148;28;20063;-57
2022/03/11 10:33:07;;;;;;;22.52;19.25;;;14.70;43.80;;;;;;5048116;28;20055;-57
2022/03/11 10:35:36;;;;;;;28.92;20.63;;;14.60;43.20;;;;;;5039345;28;20435;-57
2022/03/11 10:38:07;;;;;;;26.77;18.92;;;15.00;43.00;;;;;;5037320;28;20057;-57
2022/03/11 10:40:36;;;;;;;24.58;20.88;;;14.50;43.00;;;;;;5040350;28;20040;-57
2022/03/11 10:43:12;;;;;;;23.80;20.45;;;14.40;43.30;;;;;;5020961;28;20127;-57
2022/03/11 10:45:57;;;;;;;23.63;19.55;;;14.30;43.30;;;;;;5041165;28;20084;-57
2022/03/11 10:48:42;;;;;;;21.80;19.50;;;14.80;43.50;;;;;;5039756;28;20059;-57
2022/03/11 10:51:13;;;;;;;28.48;20.40;;;15.00;42.40;;;;;;5040467;28;20130;-57
2022/03/11 10:53:39;;;;;;;22.02;19.55;;;15.30;42.30;;;;;;5038028;28;20049;-57
2022/03/11 10:56:07;;;;;;;21.17;18.80;;;15.30;42.10;;;;;;5041958;28;20485;-55
2022/03/11 10:58:36;;;;;;;22.23;18.23;;;15.10;41.80;;;;;;5037982;28;21147;-55
2022/03/11 11:01:03;;;;;;;21.85;19.55;;;15.10;41.70;;;;;;5042484;28;20496;-55
2022/03/11 11:03:30;;;;;;;22.95;20.55;;;15.50;42.00;;;;;;5039575;28;20377;-54
2022/03/11 11:05:57;;;;;;;24.90;19.20;;;15.50;42.20;;;;;;5042044;28;20499;-54
2022/03/11 11:08:24;;;;;;;21.80;17.95;;;15.70;42.20;;;;;;5043114;28;20436;-55
2022/03/11 11:10:50;;;;;;;23.73;17.67;;;16.30;41.20;;;;;;5044013;28;20091;-55
2022/03/11 11:13:16;;;;;;;20.67;18.33;;;16.30;40.70;;;;;;5026016;28;20048;-55
2022/03/11 11:15:43;;;;;;;23.08;18.23;;;16.10;39.60;;;;;;5042639;28;20133;-55
2022/03/11 11:18:14;;;;;;;20.60;18.27;;;15.90;39.70;;;;;;5043069;28;20106;-56
2022/03/11 11:20:50;;;;;;;21.88;17.70;;;16.30;38.20;;;;;;5042700;28;20098;-54
2022/03/11 11:23:16;;;;;;;20.80;17.63;;;15.90;38.80;;;;;;5042286;28;20508;-56
2022/03/11 11:25:43;;;;;;;21.85;17.55;;;15.90;39.20;;;;;;5043535;28;20056;-55
2022/03/11 11:28:22;;;;;;;22.38;18.10;;;16.30;39.30;;;;;;5043875;28;20055;-56
2022/03/11 11:30:53;;;;;;;22.40;17.33;;;16.50;39.30;;;;;;5042195;28;20470;-56
2022/03/11 11:33:20;;;;;;;19.15;16.40;;;16.90;39.00;;;;;;5008759;28;20047;-56
2022/03/11 11:35:47;;;;;;;19.80;17.70;;;16.80;37.30;;;;;;5042358;28;20424;-56
2022/03/11 11:38:33;;;;;;;20.83;16.95;;;16.50;37.30;;;;;;5043610;28;20466;-55
2022/03/11 11:41:01;;;;;;;21.30;19.00;;;16.20;36.70;;;;;;5043118;28;20037;-55
2022/03/11 11:43:30;;;;;;;17.95;15.07;;;16.50;37.30;;;;;;5043106;28;20045;-56
2022/03/11 11:45:58;;;;;;;18.85;16.83;;;16.60;38.10;;;;;;5043201;28;20269;-55
2022/03/11 11:48:52;;;;;;;23.08;17.80;;;17.10;38.10;;;;;;5041616;28;20049;-55
2022/03/11 11:51:44;;;;;;;18.55;16.65;;;17.00;36.10;;;;;;5042745;28;20085;-56
2022/03/11 11:54:12;;;;;;;19.25;16.92;;;17.20;35.90;;;;;;5043155;28;20045;-55
2022/03/11 11:56:39;;;;;;;22.73;17.58;;;16.50;36.30;;;;;;5041645;28;20581;-55
2022/03/11 11:59:25;;;;;;;18.75;16.75;;;16.70;37.50;;;;;;5043024;28;20609;-55
2022/03/11 12:01:53;;;;;;;20.02;16.65;;;17.20;36.50;;;;;;5042826;28;20504;-56
2022/03/11 12:04:32;;;;;;;20.70;16.50;;;16.60;37.30;;;;;;5042861;28;20404;-56
2022/03/11 12:06:59;;;;;;;21.55;17.80;;;16.90;36.10;;;;;;5043087;28;20108;-55
2022/03/11 12:09:41;;;;;;;20.13;16.42;;;17.00;36.90;;;;;;5040726;28;20096;-55
2022/03/11 12:12:28;;;;;;;21.67;17.80;;;17.10;35.90;;;;;;5042734;28;20040;-55
2022/03/11 12:14:57;;;;;;;20.40;16.98;;;17.70;37.10;;;;;;5041780;28;20135;-55
2022/03/11 12:17:46;;;;;;;18.60;16.60;;;17.60;36.30;;;;;;5042968;28;20425;-55
2022/03/11 12:20:33;;;;;;;17.60;15.80;;;17.50;36.00;;;;;;5042285;28;20507;-55
2022/03/11 12:23:04;;;;;;;17.75;15.65;;;17.30;35.00;;;;;;5041446;28;20420;-54
2022/03/11 12:25:54;;;;;;;19.15;15.68;;;17.10;35.00;;;;;;5042618;28;20049;-55
2022/03/11 12:28:27;;;;;;;18.67;16.67;;;17.00;35.30;;;;;;5024337;28;20060;-55
2022/03/11 12:31:01;;;;;;;17.55;15.60;;;17.20;35.50;;;;;;5043103;28;20041;-55
2022/03/11 12:33:45;;;;;;;20.33;15.68;;;17.80;35.80;;;;;;5042254;28;20068;-55
2022/03/11 12:36:16;;;;;;;18.23;15.88;;;17.70;35.10;;;;;;5042572;28;20048;-54
2022/03/11 12:38:45;;;;;;;18.13;16.10;;;17.20;35.30;;;;;;5041320;28;20556;-55
2022/03/11 12:41:15;;;;;;;21.70;16.45;;;17.70;35.70;;;;;;5041867;28;20052;-55
2022/03/11 12:43:44;;;;;;;21.75;16.48;;;17.60;34.80;;;;;;5024065;28;20041;-55